createdAt,value
2023-01-29T00:01:33.468Z,22.57
2023-01-29T00:04:02.639Z,22.23
2023-01-29T00:06:30.778Z,22.92
2023-01-29T00:08:59.407Z,21.96
2023-01-29T00:11:27.672Z,22.75
2023-01-29T00:13:55.864Z,22.41
2023-01-29T00:16:24.040Z,22.95
2023-01-29T00:18:52.143Z,23.13
2023-01-29T00:21:22.250Z,22.88
2023-01-29T00:23:50.938Z,22.57
2023-01-29T00:26:20.607Z,23.22
2023-01-29T00:28:49.333Z,23.58
2023-01-29T00:31:20.731Z,22.71
2023-01-29T00:33:50.432Z,23.46
2023-01-29T00:36:21.633Z,23.32
2023-01-29T00:38:58.893Z,24.40
2023-01-29T00:41:48.599Z,23.79
2023-01-29T00:44:35.866Z,23.36
2023-01-29T00:47:05.637Z,24.22
2023-01-29T00:49:33.826Z,24.06
2023-01-29T00:52:20.621Z,24.43
2023-01-29T00:54:49.344Z,23.90
2023-01-29T00:57:17.196Z,24.09
2023-01-29T00:59:45.655Z,24.03
2023-01-29T01:02:32.183Z,22.68
2023-01-29T01:07:58.639Z,23.16
2023-01-29T01:10:30.142Z,24.47
2023-01-29T01:13:05.623Z,25.19
2023-01-29T01:15:39.574Z,25.88
2023-01-29T01:18:08.777Z,24.26
2023-01-29T01:20:37.175Z,24.20
2023-01-29T01:23:30.118Z,21.88
2023-01-29T01:25:58.207Z,19.88
2023-01-29T01:28:26.843Z,20.30
2023-01-29T01:30:55.000Z,18.92
2023-01-29T01:33:24.646Z,16.88
2023-01-29T01:35:52.471Z,16.94
2023-01-29T01:38:22.891Z,16.58
2023-01-29T01:40:51.893Z,16.64
2023-01-29T01:43:19.739Z,16.96
2023-01-29T01:45:48.498Z,17.29
2023-01-29T01:48:27.595Z,17.26
2023-01-29T01:51:06.345Z,17.05
2023-01-29T01:53:42.632Z,17.32
2023-01-29T01:56:26.784Z,17.08
2023-01-29T01:58:59.690Z,17.60
2023-01-29T02:01:28.560Z,18.23
2023-01-29T02:04:25.129Z,18.04
2023-01-29T02:07:12.826Z,18.27
2023-01-29T02:10:15.245Z,18.72
2023-01-29T02:12:44.555Z,18.94
2023-01-29T02:15:13.355Z,20.55
2023-01-29T02:17:41.911Z,20.12
2023-01-29T02:20:26.948Z,21.12
2023-01-29T02:23:04.568Z,21.09
2023-01-29T02:26:17.153Z,20.74
2023-01-29T02:29:20.862Z,20.85
2023-01-29T02:32:04.317Z,20.74
2023-01-29T02:35:06.617Z,20.81
2023-01-29T02:37:42.027Z,19.88
2023-01-29T02:40:24.128Z,20.53
2023-01-29T02:43:31.510Z,20.45
2023-01-29T02:46:14.626Z,19.53
2023-01-29T02:49:21.255Z,20.30
2023-01-29T02:52:20.670Z,20.29
2023-01-29T02:55:04.863Z,20.71
2023-01-29T02:57:38.102Z,21.30
2023-01-29T03:00:16.574Z,20.05
2023-01-29T03:03:03.000Z,21.50
2023-01-29T03:06:05.673Z,20.99
2023-01-29T03:08:45.597Z,21.80
2023-01-29T03:11:16.670Z,20.90
2023-01-29T03:13:57.234Z,19.99
2023-01-29T03:16:52.673Z,20.17
2023-01-29T03:19:29.695Z,20.05
2023-01-29T03:22:00.652Z,19.90
2023-01-29T03:25:16.580Z,19.82
2023-01-29T03:28:15.207Z,19.98
2023-01-29T03:31:14.958Z,19.90
2023-01-29T03:34:19.237Z,19.92
2023-01-29T03:36:55.937Z,19.36
2023-01-29T03:39:28.757Z,19.94
2023-01-29T03:42:23.117Z,20.22
2023-01-29T03:45:09.784Z,20.30
2023-01-29T03:48:00.256Z,20.34
2023-01-29T03:51:19.611Z,21.03
2023-01-29T03:53:54.220Z,21.23
2023-01-29T03:56:41.715Z,21.67
2023-01-29T03:59:24.229Z,22.16
2023-01-29T04:02:28.047Z,21.29
2023-01-29T04:05:05.462Z,21.43
2023-01-29T04:13:27.808Z,21.98
2023-01-29T04:15:59.476Z,21.75
2023-01-29T04:18:56.622Z,21.74
2023-01-29T04:21:32.887Z,22.26
2023-01-29T04:24:02.679Z,22.69
2023-01-29T04:26:46.589Z,22.27
2023-01-29T04:29:30.257Z,22.52
2023-01-29T04:32:29.637Z,23.24
2023-01-29T04:35:24.055Z,23.69
2023-01-29T04:38:23.464Z,23.25
2023-01-29T04:41:09.082Z,23.48
2023-01-29T04:44:00.521Z,23.63
2023-01-29T04:46:38.658Z,23.16
2023-01-29T04:49:46.057Z,23.01
2023-01-29T04:52:50.721Z,23.41
2023-01-29T04:56:03.394Z,23.67
2023-01-29T04:59:05.478Z,23.98
2023-01-29T05:01:37.567Z,23.20
2023-01-29T05:04:12.099Z,23.94
2023-01-29T05:06:46.718Z,24.02
2023-01-29T05:12:17.562Z,23.26
2023-01-29T05:14:48.408Z,24.19
2023-01-29T05:17:21.757Z,24.26
2023-01-29T05:19:49.807Z,24.47
2023-01-29T05:22:45.743Z,24.45
2023-01-29T05:25:29.012Z,24.34
2023-01-29T05:28:16.789Z,24.58
2023-01-29T05:30:47.624Z,25.09
2023-01-29T05:33:21.945Z,24.35
2023-01-29T05:35:50.882Z,24.31
2023-01-29T05:38:19.596Z,24.75
2023-01-29T05:40:49.615Z,24.99
2023-01-29T05:43:24.751Z,25.52
2023-01-29T05:46:01.131Z,25.76
2023-01-29T05:48:31.413Z,25.64
2023-01-29T05:51:04.705Z,25.56
2023-01-29T05:53:33.799Z,26.01
2023-01-29T05:56:03.373Z,26.45
2023-01-29T05:58:33.741Z,26.22
2023-01-29T06:01:27.133Z,25.97
2023-01-29T06:03:55.670Z,25.64
2023-01-29T06:06:23.504Z,26.20
2023-01-29T06:08:52.651Z,25.77
2023-01-29T06:11:20.695Z,27.04
2023-01-29T06:13:50.663Z,26.68
2023-01-29T06:16:18.734Z,27.31
2023-01-29T06:18:47.832Z,27.66
2023-01-29T06:21:20.213Z,26.26
2023-01-29T06:23:53.860Z,26.31
2023-01-29T06:26:21.850Z,25.80
2023-01-29T06:28:50.861Z,25.76
2023-01-29T06:31:38.184Z,26.44
2023-01-29T06:34:09.042Z,26.25
2023-01-29T06:36:37.440Z,25.53
2023-01-29T06:39:05.656Z,24.93
2023-01-29T06:41:34.547Z,24.84
2023-01-29T06:44:02.550Z,22.57
2023-01-29T06:46:34.715Z,24.97
2023-01-29T06:49:04.631Z,21.41
2023-01-29T06:51:34.723Z,20.93
2023-01-29T06:54:04.854Z,21.04
2023-01-29T06:56:32.699Z,22.10
2023-01-29T06:59:00.584Z,21.10
2023-01-29T07:01:36.709Z,21.48
2023-01-29T07:04:05.380Z,21.69
2023-01-29T07:06:35.787Z,20.96
2023-01-29T07:09:06.274Z,20.65
2023-01-29T07:11:39.648Z,21.59
2023-01-29T07:14:13.424Z,21.34
2023-01-29T07:16:42.673Z,20.96
2023-01-29T07:19:11.328Z,20.37
2023-01-29T07:21:39.326Z,19.97
2023-01-29T07:24:08.639Z,20.64
2023-01-29T07:26:36.508Z,20.57
2023-01-29T07:29:05.119Z,20.92
2023-01-29T07:31:33.775Z,20.53
2023-01-29T07:34:01.761Z,20.72
2023-01-29T07:36:34.742Z,20.63
2023-01-29T07:39:03.978Z,20.75
2023-01-29T07:41:31.841Z,20.22
2023-01-29T07:44:01.731Z,19.99
2023-01-29T07:46:29.587Z,20.78
2023-01-29T07:49:23.661Z,20.26
2023-01-29T07:51:51.492Z,21.01
2023-01-29T07:54:19.687Z,20.70
2023-01-29T07:56:47.529Z,20.42
2023-01-29T07:59:15.626Z,20.14
2023-01-29T08:01:43.747Z,20.47
2023-01-29T08:04:11.653Z,20.37
2023-01-29T08:06:40.479Z,19.82
2023-01-29T08:09:09.011Z,18.98
2023-01-29T08:11:36.901Z,19.30
2023-01-29T08:14:09.819Z,19.17
2023-01-29T08:16:37.759Z,18.71
2023-01-29T08:19:05.619Z,18.66
2023-01-29T08:21:34.436Z,18.11
2023-01-29T08:26:35.536Z,18.86
2023-01-29T08:29:07.388Z,18.37
2023-01-29T08:31:35.697Z,18.62
2023-01-29T08:34:03.546Z,18.57
2023-01-29T08:36:31.778Z,18.74
2023-01-29T08:39:01.928Z,18.34
2023-01-29T08:41:30.384Z,18.61
2023-01-29T08:46:52.743Z,16.78
2023-01-29T08:49:21.416Z,18.40
2023-01-29T08:51:51.729Z,16.17
2023-01-29T08:54:19.590Z,19.19
2023-01-29T08:56:49.791Z,17.30
2023-01-29T08:59:17.910Z,16.55
2023-01-29T09:01:45.780Z,16.51
2023-01-29T09:04:14.663Z,15.27
2023-01-29T09:06:42.513Z,14.52
2023-01-29T09:09:11.038Z,14.40
2023-01-29T09:11:41.653Z,13.68
2023-01-29T09:14:09.848Z,13.91
2023-01-29T09:16:39.677Z,13.92
2023-01-29T09:19:08.289Z,13.72
2023-01-29T09:21:36.145Z,13.88
2023-01-29T09:24:05.833Z,13.86
2023-01-29T09:26:33.799Z,13.27
2023-01-29T09:29:01.731Z,13.43
2023-01-29T09:31:29.815Z,12.83
2023-01-29T09:33:57.704Z,12.77
2023-01-29T09:36:26.647Z,12.59
2023-01-29T09:38:54.469Z,13.05
2023-01-29T09:41:41.359Z,12.96
2023-01-29T09:44:33.177Z,13.37
2023-01-29T09:47:06.777Z,13.15
2023-01-29T09:50:02.781Z,13.42
2023-01-29T09:52:35.684Z,12.73
2023-01-29T09:55:25.273Z,12.62
2023-01-29T09:57:56.666Z,12.41
2023-01-29T10:00:38.670Z,12.84
2023-01-29T10:03:26.785Z,12.57
2023-01-29T10:06:13.970Z,13.37
2023-01-29T10:08:48.045Z,12.47
2023-01-29T10:11:28.040Z,12.19
2023-01-29T10:17:29.815Z,12.48
2023-01-29T10:20:30.706Z,13.71
2023-01-29T10:23:26.472Z,10.79
2023-01-29T10:25:55.688Z,11.47
2023-01-29T10:28:34.270Z,11.79
2023-01-29T10:34:11.700Z,10.19
2023-01-29T10:36:46.480Z,11.06
2023-01-29T10:39:29.665Z,10.07
2023-01-29T10:42:20.594Z,10.11
2023-01-29T10:45:13.435Z,9.50
2023-01-29T10:48:04.806Z,9.34
2023-01-29T10:50:58.722Z,9.97
2023-01-29T10:53:53.982Z,10.67
2023-01-29T10:56:45.673Z,9.23
2023-01-29T10:59:28.125Z,10.27
2023-01-29T11:02:00.743Z,9.53
2023-01-29T11:04:31.677Z,8.98
2023-01-29T11:07:00.725Z,8.40
2023-01-29T11:09:33.133Z,8.79
2023-01-29T11:12:30.926Z,8.41
2023-01-29T11:15:14.380Z,8.38
2023-01-29T11:18:03.039Z,8.36
2023-01-29T11:20:32.686Z,8.94
2023-01-29T11:23:00.569Z,8.70
2023-01-29T11:25:32.798Z,8.52
2023-01-29T11:28:02.635Z,9.15
2023-01-29T11:30:36.611Z,8.96
2023-01-29T11:33:05.241Z,8.86
2023-01-29T11:35:35.467Z,8.72
2023-01-29T11:38:23.756Z,8.69
2023-01-29T11:40:51.934Z,9.30
2023-01-29T11:43:23.088Z,8.65
2023-01-29T11:46:07.761Z,8.42
2023-01-29T11:48:51.619Z,8.35
2023-01-29T11:51:28.693Z,10.23
2023-01-29T11:54:29.970Z,8.72
2023-01-29T11:56:58.811Z,8.60
2023-01-29T11:59:48.525Z,8.92
2023-01-29T12:02:23.196Z,9.00
2023-01-29T12:04:51.426Z,8.94
2023-01-29T12:07:20.240Z,9.24
2023-01-29T12:12:46.383Z,8.58
2023-01-29T12:15:26.499Z,9.70
2023-01-29T12:18:03.644Z,8.64
2023-01-29T12:20:47.101Z,8.74
2023-01-29T12:23:34.662Z,9.15
2023-01-29T12:26:16.042Z,9.05
2023-01-29T12:28:51.691Z,9.50
2023-01-29T12:31:27.666Z,9.49
2023-01-29T12:34:04.694Z,8.71
2023-01-29T12:36:55.750Z,9.20
2023-01-29T12:39:24.876Z,9.19
2023-01-29T12:42:16.518Z,9.48
2023-01-29T12:44:55.671Z,9.50
2023-01-29T12:47:39.781Z,9.79
2023-01-29T12:50:26.727Z,9.65
2023-01-29T12:52:59.393Z,9.11
2023-01-29T12:55:40.678Z,9.10
2023-01-29T12:58:28.690Z,9.89
2023-01-29T13:01:23.794Z,11.25
2023-01-29T13:04:40.380Z,9.88
2023-01-29T13:07:27.986Z,9.95
2023-01-29T13:10:15.042Z,10.05
2023-01-29T13:16:38.722Z,10.68
2023-01-29T13:19:36.831Z,11.27
2023-01-29T13:22:36.814Z,11.36
2023-01-29T13:25:05.993Z,10.87
2023-01-29T13:27:36.873Z,11.00
2023-01-29T13:30:05.366Z,11.17
2023-01-29T13:32:35.869Z,11.29
2023-01-29T13:35:14.190Z,10.95
2023-01-29T13:37:53.955Z,11.40
2023-01-29T13:40:27.477Z,11.31
2023-01-29T13:42:59.873Z,11.83
2023-01-29T13:45:44.005Z,11.96
2023-01-29T13:48:32.559Z,11.97
2023-01-29T13:51:02.940Z,12.01
2023-01-29T13:53:33.506Z,12.00
2023-01-29T13:56:29.483Z,12.38
2023-01-29T13:58:58.728Z,12.35
2023-01-29T14:01:48.329Z,11.68
2023-01-29T14:04:22.715Z,11.45
2023-01-29T14:06:53.018Z,11.16
2023-01-29T14:09:35.993Z,11.60
2023-01-29T14:12:21.853Z,12.30
2023-01-29T14:14:57.852Z,12.07
2023-01-29T14:17:27.317Z,12.10
2023-01-29T14:20:04.898Z,11.84
2023-01-29T14:22:34.794Z,12.16
2023-01-29T14:25:06.742Z,11.91
2023-01-29T14:27:37.267Z,11.81
2023-01-29T14:30:12.630Z,11.56
2023-01-29T14:32:40.662Z,11.83
2023-01-29T14:35:22.742Z,12.36
2023-01-29T14:37:55.028Z,12.88
2023-01-29T14:43:23.699Z,12.29
2023-01-29T14:45:51.706Z,12.62
2023-01-29T14:51:38.507Z,16.69
2023-01-29T14:54:18.989Z,12.95
2023-01-29T14:56:59.758Z,12.27
2023-01-29T14:59:38.097Z,11.75
2023-01-29T15:02:19.800Z,12.37
2023-01-29T15:04:57.451Z,12.98
2023-01-29T15:07:31.747Z,13.12
2023-01-29T15:10:21.847Z,12.55
2023-01-29T15:13:01.466Z,14.01
2023-01-29T15:15:38.347Z,13.55
2023-01-29T15:18:14.695Z,13.62
2023-01-29T15:20:44.052Z,13.09
2023-01-29T15:23:32.165Z,13.64
2023-01-29T15:26:06.053Z,17.51
2023-01-29T15:31:29.779Z,13.46
2023-01-29T15:34:06.548Z,13.79
2023-01-29T15:36:37.341Z,14.16
2023-01-29T15:39:16.718Z,15.10
2023-01-29T15:41:45.745Z,14.26
2023-01-29T15:44:22.160Z,14.52
2023-01-29T15:49:54.719Z,14.74
2023-01-29T15:52:35.058Z,15.00
2023-01-29T15:55:06.666Z,14.86
2023-01-29T15:57:37.667Z,16.58
2023-01-29T16:03:03.752Z,18.77
2023-01-29T16:05:33.119Z,16.55
2023-01-29T16:08:01.801Z,16.37
2023-01-29T16:10:31.943Z,15.98
2023-01-29T16:13:01.697Z,15.23
2023-01-29T16:15:54.804Z,15.48
2023-01-29T16:21:34.746Z,15.38
2023-01-29T16:24:11.735Z,15.24
2023-01-29T16:26:48.799Z,15.46
2023-01-29T16:29:42.121Z,15.44
2023-01-29T16:32:14.918Z,14.98
2023-01-29T16:34:45.757Z,15.81
2023-01-29T16:37:26.399Z,16.49
2023-01-29T16:39:54.956Z,16.38
2023-01-29T16:42:34.767Z,16.13
2023-01-29T16:45:05.967Z,17.71
2023-01-29T16:47:40.753Z,16.64
2023-01-29T16:50:17.913Z,17.29
2023-01-29T16:53:24.685Z,16.38
2023-01-29T16:55:52.836Z,16.31
2023-01-29T16:58:26.751Z,16.61
2023-01-29T17:01:09.207Z,17.39
2023-01-29T17:03:38.896Z,18.68
2023-01-29T17:06:11.349Z,18.66
2023-01-29T17:08:42.774Z,17.69
2023-01-29T17:11:36.816Z,17.67
2023-01-29T17:14:08.715Z,17.11
2023-01-29T17:16:50.591Z,17.43
2023-01-29T17:19:44.024Z,16.62
2023-01-29T17:22:14.877Z,17.21
2023-01-29T17:24:42.751Z,17.58
2023-01-29T17:27:20.449Z,17.81
2023-01-29T17:30:17.854Z,17.09
2023-01-29T17:35:42.945Z,19.56
2023-01-29T17:38:25.501Z,18.81
2023-01-29T17:40:55.440Z,18.38
2023-01-29T17:43:23.351Z,18.75
2023-01-29T17:45:51.787Z,18.53
2023-01-29T17:48:28.433Z,18.48
2023-01-29T17:51:04.779Z,18.37
2023-01-29T17:53:44.857Z,18.72
2023-01-29T17:56:32.040Z,18.39
2023-01-29T17:59:00.903Z,20.11
2023-01-29T18:01:30.338Z,18.59
2023-01-29T18:03:58.283Z,18.78
2023-01-29T18:06:28.898Z,19.33
2023-01-29T18:08:58.854Z,19.67
2023-01-29T18:11:53.396Z,19.66
2023-01-29T18:14:21.679Z,19.12
2023-01-29T18:16:50.466Z,18.52
2023-01-29T18:19:31.731Z,18.69
2023-01-29T18:21:59.679Z,19.09
2023-01-29T18:24:27.990Z,19.27
2023-01-29T18:26:55.876Z,21.86
2023-01-29T18:29:29.470Z,24.10
2023-01-29T18:31:57.764Z,24.40
2023-01-29T18:34:25.737Z,22.40
2023-01-29T18:36:54.704Z,20.47
2023-01-29T18:39:22.579Z,18.63
2023-01-29T18:41:51.530Z,18.50
2023-01-29T18:44:23.692Z,18.97
2023-01-29T18:46:55.400Z,19.24
2023-01-29T18:49:23.329Z,18.88
2023-01-29T18:51:51.171Z,18.40
2023-01-29T18:54:21.797Z,19.87
2023-01-29T18:57:13.407Z,18.95
2023-01-29T18:59:37.875Z,19.24
2023-01-29T19:02:07.664Z,21.29
2023-01-29T19:05:01.029Z,20.78
2023-01-29T19:07:30.090Z,20.21
2023-01-29T19:09:58.350Z,19.38
2023-01-29T19:12:29.697Z,20.62
2023-01-29T19:14:57.590Z,21.75
2023-01-29T19:17:25.843Z,20.37
2023-01-29T19:19:53.789Z,20.15
2023-01-29T19:22:21.656Z,20.34
2023-01-29T19:24:49.706Z,19.56
2023-01-29T19:27:17.544Z,20.71
2023-01-29T19:29:46.649Z,21.84
2023-01-29T19:32:40.542Z,20.54
2023-01-29T19:35:08.505Z,20.68
2023-01-29T19:37:36.396Z,21.45
2023-01-29T19:40:04.906Z,22.04
2023-01-29T19:42:32.745Z,23.04
2023-01-29T19:45:00.659Z,24.03
2023-01-29T19:47:28.618Z,25.32
2023-01-29T19:49:56.502Z,23.17
2023-01-29T19:52:50.278Z,22.65
2023-01-29T19:55:21.376Z,22.81
2023-01-29T19:57:52.416Z,23.11
2023-01-29T20:00:21.717Z,22.97
2023-01-29T20:02:49.818Z,22.29
2023-01-29T20:05:19.296Z,22.27
2023-01-29T20:07:51.743Z,22.28
2023-01-29T20:10:20.503Z,22.77
2023-01-29T20:12:49.472Z,22.70
2023-01-29T20:15:17.757Z,21.75
2023-01-29T20:17:45.919Z,21.54
2023-01-29T20:20:14.864Z,21.63
2023-01-29T20:22:43.735Z,22.09
2023-01-29T20:25:13.629Z,21.67
2023-01-29T20:27:41.970Z,21.18
2023-01-29T20:30:38.740Z,22.06
2023-01-29T20:33:07.780Z,20.82
2023-01-29T20:35:40.808Z,21.66
2023-01-29T20:38:08.670Z,21.37
2023-01-29T20:40:36.567Z,21.77
2023-01-29T20:43:05.686Z,21.95
2023-01-29T20:45:36.052Z,22.28
2023-01-29T20:48:04.209Z,22.16
2023-01-29T20:50:32.487Z,22.50
2023-01-29T20:53:00.458Z,22.06
2023-01-29T20:55:31.558Z,22.35
2023-01-29T20:58:06.028Z,22.45
2023-01-29T21:00:36.795Z,22.17
2023-01-29T21:03:05.766Z,22.73
2023-01-29T21:05:33.615Z,24.28
2023-01-29T21:08:27.837Z,22.40
2023-01-29T21:10:55.736Z,23.13
2023-01-29T21:13:24.449Z,23.83
2023-01-29T21:15:52.799Z,22.28
2023-01-29T21:18:20.927Z,22.52
2023-01-29T21:20:50.461Z,22.89
2023-01-29T21:23:18.673Z,22.99
2023-01-29T21:25:46.575Z,22.48
2023-01-29T21:28:16.138Z,23.19
2023-01-29T21:30:47.873Z,23.88
2023-01-29T21:33:15.916Z,24.09
2023-01-29T21:35:43.774Z,24.20
2023-01-29T21:38:12.749Z,23.86
2023-01-29T21:40:40.592Z,23.94
2023-01-29T21:43:12.835Z,25.00
2023-01-29T21:45:40.897Z,24.49
2023-01-29T21:51:06.735Z,24.12
2023-01-29T21:54:00.204Z,24.45
2023-01-29T21:56:28.146Z,24.52
2023-01-29T21:59:00.771Z,25.11
2023-01-29T22:01:37.631Z,24.71
2023-01-29T22:04:08.649Z,24.55
2023-01-29T22:06:41.925Z,25.03
2023-01-29T22:09:09.765Z,25.28
2023-01-29T22:11:41.595Z,25.07
2023-01-29T22:14:10.483Z,24.88
2023-01-29T22:16:38.524Z,25.15
2023-01-29T22:19:06.533Z,25.54
2023-01-29T22:21:36.856Z,25.87
2023-01-29T22:24:05.772Z,25.42
2023-01-29T22:26:34.223Z,25.75
2023-01-29T22:29:02.747Z,25.64
2023-01-29T22:31:30.686Z,25.81
2023-01-29T22:34:02.716Z,25.87
2023-01-29T22:36:31.456Z,25.57
2023-01-29T22:38:59.307Z,26.21
2023-01-29T22:41:28.728Z,26.17
2023-01-29T22:43:57.485Z,25.46
2023-01-29T22:46:25.493Z,26.05
2023-01-29T22:48:54.821Z,25.44
2023-01-29T22:51:26.527Z,25.33
2023-01-29T22:53:56.456Z,25.43
2023-01-29T22:56:26.646Z,26.69
2023-01-29T22:58:57.737Z,26.47
2023-01-29T23:01:30.838Z,27.00
2023-01-29T23:04:00.732Z,26.35
2023-01-29T23:06:28.578Z,26.49
2023-01-29T23:14:43.769Z,26.39
2023-01-29T23:17:11.635Z,26.67
2023-01-29T23:19:40.386Z,26.60
2023-01-29T23:22:08.515Z,26.42
2023-01-29T23:24:36.397Z,26.22
2023-01-29T23:27:19.728Z,26.74
2023-01-29T23:29:51.429Z,26.24
2023-01-29T23:32:21.726Z,27.05
2023-01-29T23:35:18.767Z,26.17
2023-01-29T23:41:04.920Z,27.33
2023-01-29T23:43:34.504Z,27.25
2023-01-29T23:46:02.343Z,27.13
2023-01-29T23:48:30.757Z,27.11
2023-01-29T23:50:58.680Z,27.48
2023-01-29T23:53:26.512Z,26.93
2023-01-29T23:56:02.815Z,27.50
2023-01-29T23:58:32.434Z,27.68
